• Join FlightAware (Why Join?)
  • Login
  • US Flag 
04:17PM EDT


 

Airport Tracker/Info


-or-


 

Live Flight TrackerFlight Track Log ✈ DAL3970 ✈ 13-Jun-2013 ✈ KEWR - KCVG

Flight Track Log - Related Links

Times and Time Zones

All times are in EDT time to prevent confusion due to time zone crossing. See the DAL3970 flight status page for this flight to view local times or setup timezone preferences in your user account.

Time Position Orientation Groundspeed Altitude Reporting Facility
EDT Latitude Longitude Course Direction KTS MPH feet Rate Location/Type
01:39PM 40.7167 -74.1500 27° Northeast 174 200 1,200  Level New York TRACON
01:40PM 40.7667 -74.1167 27° Northeast 217 250 2,900 1,560 Climbing New York TRACON
01:41PM 40.8333 -74.1167 360° North 285 328 4,400 1,980 Climbing New York TRACON
01:42PM 40.8833 -74.1833 315° West 253 291 6,900 1,740 Climbing New York TRACON
01:43PM 40.9000 -74.2667 285° West 234 269 7,900 1,380 Climbing New York TRACON
01:44PM 40.9000 -74.3500 270° West 245 282 9,700 1,560 Climbing New York TRACON
01:45PM 40.9000 -74.4500 270° West 265 305 11,100 1,200 Climbing New York TRACON
01:46PM 40.9167 -74.5667 307° West 302 348 12,100 960 Climbing New York TRACON
01:47PM 40.9375 -74.6494 288° West 314 361 12,800 1,080 Climbing New York Center
01:48PM 40.9425 -74.7514 274° West 321 369 14,100 1,380 Climbing New York Center
01:49PM 40.9364 -74.8692 266° West 326 375 15,700 1,260 Climbing New York Center
01:50PM 40.9303 -74.9814 266° West 320 368 16,700 960 Climbing New York Center
01:51PM 40.9217 -75.1017 265° West 320 368 17,600 1,020 Climbing New York Center
01:52PM 40.9097 -75.2025 261° West 328 377 18,800 1,080 Climbing New York Center
01:53PM 40.8822 -75.3217 253° West 328 377 19,800 960 Climbing New York Center
01:54PM 40.8592 -75.4325 255° West 328 377 20,800 780 Climbing New York Center
01:55PM 40.8317 -75.5486 253° West 334 384 21,400 600 Climbing New York Center
01:56PM 40.8039 -75.6644 252° West 334 384 22,000 600 Climbing New York Center
01:57PM 40.7761 -75.7831 253° West 339 390 22,600 540 Climbing New York Center
01:58PM 40.7461 -75.8986 251° West 339 390 23,200 540 Climbing New York Center
01:59PM 40.7203 -76.0144 254° West 339 390 23,800 600 Climbing New York Center
02:00PM 40.6894 -76.1436 253° West 339 390 24,400 540 Climbing New York Center
02:01PM 40.6778 -76.2631 263° West 339 390 24,900 480 Climbing New York Center
02:02PM 40.6758 -76.3889 269° West 339 390 25,400 480 Climbing New York Center
02:03PM 40.6739 -76.5172 269° West 346 398 25,900 480 Climbing New York Center
02:04PM 40.6719 -76.6403 269° West 346 398 26,400 480 Climbing New York Center
02:05PM 40.6700 -76.7661 269° West 346 398 26,900 540 Climbing New York Center
02:06PM 40.6675 -76.8944 269° West 346 398 27,500 540 Climbing New York Center
02:07PM 40.6817 -77.0217 278° West 346 398 28,000 240 Climbing New York Center
02:08PM 40.6958 -77.1489 278° West 351 404 28,000  Level New York Center
02:09PM 40.7117 -77.2764 279° West 357 411 28,000  Level New York Center
02:11PM 40.7394 -77.5383 278° West 352 405 28,000  Level Cleveland Center
02:12PM 40.7556 -77.6747 279° West 368 423 28,000  Level Cleveland Center
02:13PM 40.7694 -77.8111 278° West 381 438 28,000  Level Cleveland Center
02:14PM 40.7853 -77.9531 278° West 391 450 28,000  Level Cleveland Center
02:15PM 40.7989 -78.0925 277° West 391 450 28,000  Level Cleveland Center
02:16PM 40.8081 -78.2347 275° West 391 450 28,000  Level Cleveland Center
02:17PM 40.7839 -78.3728 257° West 386 444 28,000  Level Cleveland Center
02:18PM 40.7614 -78.5133 258° West 391 450 28,000  Level Cleveland Center
02:19PM 40.7367 -78.6539 257° West 391 450 28,000  Level Cleveland Center
02:20PM 40.7139 -78.7944 258° West 391 450 28,000  Level Cleveland Center
02:21PM 40.6911 -78.9319 258° West 391 450 28,000  Level Cleveland Center
02:22PM 40.6681 -79.0831 259° West 391 450 28,000  Level Cleveland Center
02:23PM 40.6447 -79.2203 257° West 391 450 28,000  Level Cleveland Center
02:24PM 40.6214 -79.3550 257° West 391 450 28,000  Level Cleveland Center
02:25PM 40.5978 -79.4894 257° West 391 450 28,000  Level Cleveland Center
02:26PM 40.5739 -79.6264 257° West 386 444 28,000  Level Cleveland Center
02:27PM 40.5500 -79.7606 257° West 386 444 28,000  Level Cleveland Center
02:28PM 40.5258 -79.8947 257° West 386 444 28,000  Level Cleveland Center
02:29PM 40.5078 -80.0206 259° West 386 444 28,000  Level Cleveland Center
02:30PM 40.4917 -80.1572 261° West 386 444 28,000  Level Cleveland Center
02:31PM 40.4711 -80.2964 259° West 393 452 28,000  Level Cleveland Center
02:32PM 40.4547 -80.4439 262° West 382 440 28,000  Level Cleveland Center
02:33PM 40.4361 -80.5803 260° West 382 440 28,000  Level Cleveland Center
02:34PM 40.4172 -80.7194 260° West 382 440 28,000  Level Cleveland Center
02:35PM 40.4003 -80.8583 261° West 387 445 28,000  Level Cleveland Center
02:36PM 40.3792 -80.9972 259° West 392 451 28,000  Level Cleveland Center
02:37PM 40.3619 -81.1361 261° West 392 451 28,000  Level Cleveland Center
02:37PM 40.3508 -81.2008 257° West 390 449 28,000  Level Indianapolis Center
02:38PM 40.3311 -81.3433 260° West 392 451 28,000  Level Indianapolis Center
02:39PM 40.3108 -81.4842 259° West 389 448 28,000  Level Indianapolis Center
02:40PM 40.2883 -81.6489 260° West 390 449 28,000  Level Indianapolis Center
02:41PM 40.2683 -81.7892 259° West 389 448 28,000  Level Indianapolis Center
02:42PM 40.2475 -81.9297 259° West 390 449 28,000  Level Indianapolis Center
02:43PM 40.2283 -82.0711 260° West 387 445 28,000 -420 Level Indianapolis Center
02:44PM 40.2064 -82.2136 259° West 395 455 27,200 -960 Descending Indianapolis Center
02:45PM 40.1850 -82.3628 259° West 408 470 26,100 -840 Descending Indianapolis Center
02:46PM 40.1553 -82.5064 255° West 410 472 25,500 -780 Descending Indianapolis Center
02:48PM 40.0994 -82.6319 240° Southwest 395 455 24,600 -840 Descending Indianapolis Center
02:49PM 40.0453 -82.7592 241° Southwest 399 459 23,800 -840 Descending Indianapolis Center
02:50PM 39.9869 -82.8992 241° Southwest 379 436 23,000 -420 Descending Indianapolis Center
02:51PM 39.9364 -83.0181 241° Southwest 372 428 23,000  Level Indianapolis Center
02:52PM 39.8836 -83.1408 241° Southwest 381 438 23,000  Level Indianapolis Center
02:53PM 39.8303 -83.2658 241° Southwest 388 447 23,000 -840 Level Indianapolis Center
02:54PM 39.7769 -83.3919 241° Southwest 387 445 21,300 -1,860 Descending Indianapolis Center
02:55PM 39.7258 -83.5114 241° Southwest 372 428 19,300 -2,040 Descending Indianapolis Center
02:56PM 39.6756 -83.6286 241° Southwest 361 415 17,100 -2,100 Descending Indianapolis Center
02:57PM 39.6283 -83.7367 240° Southwest 345 397 15,000 -2,040 Descending Indianapolis Center
02:58PM 39.5819 -83.8428 240° Southwest 337 388 13,000 -1,920 Descending Indianapolis Center
02:59PM 39.5381 -83.9458 241° Southwest 326 375 11,100 -1,020 Descending Indianapolis Center
03:00PM 39.4925 -84.0475 240° Southwest 323 372 10,900 -120 Descending Indianapolis Center
03:01PM 39.4294 -84.1358 227° Southwest 329 379 10,900  Level Indianapolis Center
03:02PM 39.3561 -84.2375 227° Southwest 331 381 10,900  Level Indianapolis Center
03:03PM 39.2908 -84.3239 226° Southwest 332 382 10,900  Level Indianapolis Center
03:04PM 39.2272 -84.4100 226° Southwest 331 381 10,900 -300 Level Indianapolis Center
03:05PM 39.1644 -84.4942 226° Southwest 324 373 10,400 -1,020 Descending Indianapolis Center
03:06PM 39.0922 -84.5381 205° Southwest 310 357 8,900 -1,500 Descending Indianapolis Center
03:07PM 39.0083 -84.5369 179° South 301 346 7,300 -1,380 Descending Indianapolis Center
03:08PM 38.9161 -84.5336 178° South 300 345 6,100 -1,260 Descending Indianapolis Center
03:09PM 38.8497 -84.5806 209° Southwest 302 348 4,700 -1,380 Descending Indianapolis Center